Time;durP1;ratioP1;P1;durP2;ratioP2;P2;SDS_P1;SDS_P2;PMS_P1;PMS_P2;Temp;Humidity;BMP_temperature;BMP_pressure;BME280_temperature;BME280_humidity;BME280_pressure;Samples;Min_cycle;Max_cycle;Signal;HPM_P1;HPM_P2
2022/12/06 00:01:56;;;;;;;5.97;3.70;;;1.70;99.90;;;;;;5069082;28;20201;-78
2022/12/06 00:04:23;;;;;;;1.75;1.75;;;1.70;99.90;;;;;;5070735;28;20217;-77
2022/12/06 00:06:50;;;;;;;1.08;1.08;;;1.70;99.90;;;;;;5070352;28;20571;-78
2022/12/06 00:09:20;;;;;;;2.97;1.23;;;1.70;99.90;;;;;;5071245;28;20360;-79
2022/12/06 00:11:47;;;;;;;3.33;2.28;;;1.70;99.90;;;;;;5063521;28;20220;-78
2022/12/06 00:14:14;;;;;;;7.63;4.45;;;1.80;99.90;;;;;;5062774;28;20240;-77
2022/12/06 00:16:43;;;;;;;1.80;1.17;;;1.80;99.90;;;;;;5056015;28;20691;-78
2022/12/06 00:19:12;;;;;;;1.95;1.85;;;1.80;99.90;;;;;;5071642;28;20203;-79
2022/12/06 00:21:39;;;;;;;2.22;2.08;;;1.70;99.90;;;;;;5072611;28;20208;-76
2022/12/06 00:24:08;;;;;;;3.17;2.90;;;1.80;99.90;;;;;;5072117;28;20247;-79
2022/12/06 00:26:36;;;;;;;5.18;4.68;;;1.80;99.90;;;;;;5072599;28;20197;-78
2022/12/06 00:29:05;;;;;;;3.50;3.20;;;1.80;99.90;;;;;;5071277;28;20326;-78
2022/12/06 00:31:33;;;;;;;19.40;4.63;;;1.80;99.90;;;;;;5066756;28;20222;-78
2022/12/06 00:34:01;;;;;;;0.85;0.85;;;1.80;99.90;;;;;;5072145;28;20304;-77
2022/12/06 00:36:30;;;;;;;1.67;1.58;;;1.80;99.90;;;;;;5072474;28;20261;-76
2022/12/06 00:38:59;;;;;;;2.33;2.15;;;1.80;99.90;;;;;;5069448;28;20229;-81
2022/12/06 00:41:26;;;;;;;0.90;0.68;;;1.80;99.90;;;;;;5068935;28;20256;-78
2022/12/06 00:43:54;;;;;;;0.50;0.50;;;1.80;99.90;;;;;;5064820;28;20201;-80
2022/12/06 00:46:23;;;;;;;2.13;1.92;;;1.80;99.90;;;;;;5069003;28;20198;-79
2022/12/06 00:48:50;;;;;;;2.53;2.40;;;1.80;99.90;;;;;;5065460;28;20220;-80
2022/12/06 00:51:20;;;;;;;12.82;4.85;;;1.80;99.90;;;;;;5064544;28;20256;-78
2022/12/06 00:53:47;;;;;;;0.80;0.80;;;1.80;99.90;;;;;;5068264;28;20220;-77
2022/12/06 00:56:14;;;;;;;1.38;1.38;;;1.80;99.90;;;;;;5065855;28;20189;-80
2022/12/06 00:58:41;;;;;;;0.75;0.75;;;1.90;99.90;;;;;;5065617;28;20194;-78
2022/12/06 01:01:10;;;;;;;1.50;1.38;;;1.90;99.90;;;;;;5070010;28;20281;-78
2022/12/06 01:03:37;;;;;;;2.83;2.53;;;1.90;99.90;;;;;;5070284;28;20213;-76
2022/12/06 01:06:05;;;;;;;2.53;1.75;;;2.00;99.90;;;;;;5051105;28;20198;-78
2022/12/06 01:08:33;;;;;;;2.47;2.05;;;2.00;99.90;;;;;;5063199;28;20747;-75
2022/12/06 01:11:01;;;;;;;9.00;8.55;;;2.00;99.90;;;;;;5065891;28;20207;-78
2022/12/06 01:13:29;;;;;;;0.93;0.93;;;2.00;99.90;;;;;;5069210;28;20311;-78
2022/12/06 01:15:56;;;;;;;2.03;1.92;;;2.00;99.90;;;;;;5071205;28;20192;-78
2022/12/06 01:18:23;;;;;;;5.47;2.97;;;2.00;99.90;;;;;;5071163;28;20209;-78
2022/12/06 01:20:50;;;;;;;18.95;5.13;;;2.00;99.90;;;;;;5052482;28;20224;-79
2022/12/06 01:23:16;;;;;;;0.50;0.40;;;2.10;99.90;;;;;;5070953;28;20301;-78
2022/12/06 01:25:51;;;;;;;0.50;0.40;;;2.10;99.90;;;;;;5062735;28;20336;-77
2022/12/06 01:28:18;;;;;;;2.20;1.25;;;2.10;99.90;;;;;;5064898;28;20197;-78
2022/12/06 01:30:45;;;;;;;0.85;0.82;;;2.10;99.90;;;;;;5066586;28;20288;-79
2022/12/06 01:33:12;;;;;;;3.60;3.35;;;2.20;99.90;;;;;;5073294;28;20304;-77
2022/12/06 01:35:40;;;;;;;2.25;0.90;;;2.20;99.90;;;;;;5073716;28;20299;-79
2022/12/06 01:38:07;;;;;;;0.50;0.40;;;2.20;99.90;;;;;;5074752;28;20233;-78
2022/12/06 01:40:38;;;;;;;1.38;1.27;;;2.20;99.90;;;;;;5074396;28;20566;-75
2022/12/06 01:43:26;;;;;;;0.50;0.50;;;2.30;99.90;;;;;;5074197;28;20248;-78
2022/12/06 01:45:53;;;;;;;0.50;0.40;;;2.30;99.90;;;;;;5068643;28;20190;-78
2022/12/06 01:48:23;;;;;;;0.50;0.50;;;2.30;99.90;;;;;;5068263;28;20192;-79
2022/12/06 01:50:50;;;;;;;0.95;0.90;;;2.30;99.90;;;;;;5074550;28;20570;-78
2022/12/06 01:53:18;;;;;;;0.80;0.80;;;2.40;99.90;;;;;;5073013;28;20293;-79
2022/12/06 01:55:46;;;;;;;2.47;2.38;;;2.40;99.90;;;;;;5072236;28;20236;-78
2022/12/06 01:58:19;;;;;;;3.65;3.42;;;2.30;99.90;;;;;;5065173;28;20201;-78
2022/12/06 02:00:46;;;;;;;1.45;1.35;;;2.50;99.90;;;;;;5073818;28;20284;-78
2022/12/06 02:03:18;;;;;;;0.57;0.57;;;2.50;99.90;;;;;;5073364;28;20709;-80
2022/12/06 02:05:45;;;;;;;4.40;2.13;;;2.50;99.90;;;;;;5071407;28;20197;-78
2022/12/06 02:08:14;;;;;;;4.57;2.72;;;2.50;99.90;;;;;;5073954;28;20544;-77
2022/12/06 02:10:41;;;;;;;0.50;0.50;;;2.50;99.90;;;;;;5074382;28;20199;-78
2022/12/06 02:13:08;;;;;;;1.50;1.50;;;2.50;99.90;;;;;;5073760;28;20281;-78
2022/12/06 02:15:49;;;;;;;1.67;1.58;;;2.50;99.90;;;;;;5073402;28;20243;-78
2022/12/06 02:18:21;;;;;;;0.50;0.40;;;2.50;99.90;;;;;;5072702;28;20193;-79
2022/12/06 02:20:53;;;;;;;1.30;1.30;;;2.50;99.90;;;;;;5073383;28;20277;-80
2022/12/06 02:23:55;;;;;;;0.50;0.40;;;2.60;99.90;;;;;;5073697;28;20648;-77
2022/12/06 02:26:30;;;;;;;2.45;2.25;;;2.60;99.90;;;;;;5074443;28;20292;-80
2022/12/06 02:29:43;;;;;;;0.50;0.40;;;2.60;99.90;;;;;;5064709;28;20202;-80
2022/12/06 02:32:17;;;;;;;1.30;1.20;;;2.60;99.90;;;;;;5068529;28;20185;-79
2022/12/06 02:34:50;;;;;;;0.65;0.65;;;2.70;99.90;;;;;;5071922;28;20709;-78
2022/12/06 02:37:22;;;;;;;1.83;1.73;;;2.70;99.90;;;;;;5070528;28;20208;-77
2022/12/06 02:39:55;;;;;;;1.67;1.58;;;2.70;99.90;;;;;;5069969;28;20278;-79
2022/12/06 02:42:26;;;;;;;0.90;0.90;;;2.70;99.90;;;;;;5066244;28;20624;-78
2022/12/06 02:44:54;;;;;;;0.50;0.40;;;2.70;99.90;;;;;;5069910;28;20205;-79
2022/12/06 02:47:27;;;;;;;1.10;1.10;;;2.70;99.90;;;;;;5073119;28;20200;-79
2022/12/06 02:49:56;;;;;;;7.70;3.20;;;2.70;99.90;;;;;;5074842;28;20698;-80
2022/12/06 02:52:27;;;;;;;0.98;0.98;;;2.70;99.90;;;;;;5074687;28;20186;-79
2022/12/06 02:54:56;;;;;;;0.68;0.68;;;2.70;99.90;;;;;;5070658;28;20933;-78
2022/12/06 02:57:33;;;;;;;0.50;0.50;;;2.70;99.90;;;;;;5073900;28;20194;-78
2022/12/06 03:00:00;;;;;;;1.85;1.75;;;2.70;99.90;;;;;;5072446;28;20281;-79
2022/12/06 03:02:28;;;;;;;3.67;3.55;;;2.80;99.90;;;;;;5072405;28;20559;-78
2022/12/06 03:05:10;;;;;;;0.50;0.50;;;2.70;99.90;;;;;;5065426;28;20181;-79
2022/12/06 03:07:42;;;;;;;0.50;0.50;;;2.80;99.90;;;;;;5067413;28;20190;-78
2022/12/06 03:10:31;;;;;;;2.25;2.15;;;2.70;99.90;;;;;;5068917;28;20563;-77
2022/12/06 03:13:08;;;;;;;20.88;3.22;;;2.80;99.90;;;;;;5072444;28;20228;-77
2022/12/06 03:15:44;;;;;;;2.35;2.25;;;2.80;99.90;;;;;;5069467;28;20190;-77
2022/12/06 03:18:18;;;;;;;0.50;0.40;;;2.80;99.90;;;;;;5072483;28;20289;-77
2022/12/06 03:20:49;;;;;;;0.73;0.73;;;2.90;99.90;;;;;;5071115;28;20197;-78
2022/12/06 03:23:21;;;;;;;0.50;0.40;;;2.90;99.90;;;;;;5073242;28;20210;-78
2022/12/06 03:25:49;;;;;;;0.50;0.40;;;2.90;99.90;;;;;;5072312;28;20316;-78
2022/12/06 03:28:18;;;;;;;0.50;0.40;;;2.90;99.90;;;;;;5070530;28;20559;-77
2022/12/06 03:30:49;;;;;;;0.50;0.40;;;3.00;99.90;;;;;;5065135;28;20190;-76
2022/12/06 03:33:22;;;;;;;0.50;0.40;;;3.00;99.90;;;;;;5073310;28;20308;-77
2022/12/06 03:35:50;;;;;;;3.42;2.05;;;3.00;99.90;;;;;;5058031;28;20209;-78
2022/12/06 03:38:21;;;;;;;0.50;0.40;;;3.10;99.90;;;;;;5071699;28;20193;-79
2022/12/06 03:40:52;;;;;;;0.50;0.40;;;3.20;99.90;;;;;;5072846;28;20189;-79
2022/12/06 03:43:20;;;;;;;0.60;0.60;;;3.20;99.90;;;;;;5072764;28;20222;-80
2022/12/06 03:45:53;;;;;;;0.50;0.40;;;3.20;99.90;;;;;;5071794;28;20198;-78
2022/12/06 03:48:26;;;;;;;0.50;0.40;;;3.20;99.90;;;;;;5070299;28;20288;-78
2022/12/06 03:50:57;;;;;;;0.50;0.40;;;3.30;99.90;;;;;;5072151;28;20269;-79
2022/12/06 03:53:24;;;;;;;0.75;0.75;;;3.30;99.90;;;;;;5071032;28;20217;-78
2022/12/06 03:55:51;;;;;;;0.50;0.40;;;3.30;99.90;;;;;;5072206;28;20610;-79
2022/12/06 03:58:18;;;;;;;0.50;0.40;;;3.40;99.90;;;;;;5069316;28;20202;-78
2022/12/06 04:00:45;;;;;;;0.50;0.40;;;3.40;99.90;;;;;;5072123;28;20186;-79
2022/12/06 04:03:12;;;;;;;0.50;0.40;;;3.40;99.90;;;;;;5072278;28;20220;-78
2022/12/06 04:05:40;;;;;;;0.52;0.52;;;3.40;99.90;;;;;;5070389;28;20200;-78
2022/12/06 04:08:07;;;;;;;0.50;0.40;;;3.50;99.90;;;;;;5062634;28;20193;-81
2022/12/06 04:10:33;;;;;;;0.50;0.40;;;3.50;99.90;;;;;;5068994;28;20276;-79
2022/12/06 04:13:01;;;;;;;1.55;1.45;;;3.50;99.90;;;;;;5067892;28;20580;-78
2022/12/06 04:15:29;;;;;;;0.50;0.40;;;3.50;99.90;;;;;;5062228;28;20581;-81
2022/12/06 04:18:14;;;;;;;0.50;0.40;;;3.50;99.90;;;;;;5068353;28;20197;-77
2022/12/06 04:23:45;;;;;;;0.50;0.40;;;3.60;99.90;;;;;;5056187;28;20548;-76
2022/12/06 04:26:13;;;;;;;0.50;0.40;;;3.60;99.90;;;;;;5071445;28;20189;-78
2022/12/06 04:39:40;;;;;;;0.50;0.40;;;3.70;99.90;;;;;;5071650;28;20243;-79
2022/12/06 04:44:51;;;;;;;0.50;0.40;;;3.70;99.90;;;;;;5068974;28;20200;-79
2022/12/06 04:47:18;;;;;;;0.50;0.50;;;3.70;99.90;;;;;;5066319;28;20202;-80
2022/12/06 04:49:45;;;;;;;0.50;0.40;;;3.80;99.90;;;;;;5071259;28;20214;-79
2022/12/06 04:52:14;;;;;;;0.50;0.40;;;3.80;99.90;;;;;;5071296;28;20243;-79
2022/12/06 04:54:41;;;;;;;1.20;1.20;;;3.80;99.90;;;;;;5070889;28;20305;-79
2022/12/06 04:57:11;;;;;;;0.50;0.40;;;3.80;99.90;;;;;;5070790;28;20304;-80
2022/12/06 04:59:40;;;;;;;0.50;0.40;;;3.90;99.90;;;;;;5071008;28;20186;-80
2022/12/06 05:02:10;;;;;;;0.50;0.40;;;3.90;99.90;;;;;;5071501;28;20286;-78
2022/12/06 05:04:37;;;;;;;0.50;0.40;;;3.80;99.90;;;;;;5070778;28;20702;-79
2022/12/06 05:07:04;;;;;;;0.50;0.40;;;3.80;99.90;;;;;;5070338;28;20194;-78
2022/12/06 05:09:32;;;;;;;0.50;0.50;;;3.90;99.90;;;;;;5071147;28;20186;-79
2022/12/06 05:11:58;;;;;;;0.60;0.60;;;3.90;99.90;;;;;;5059461;28;20190;-78
2022/12/06 05:14:25;;;;;;;0.50;0.40;;;3.90;99.90;;;;;;5070305;28;20226;-79
2022/12/06 05:16:52;;;;;;;0.60;0.60;;;3.90;99.90;;;;;;5065489;28;20189;-79
2022/12/06 05:19:19;;;;;;;0.50;0.40;;;3.90;99.90;;;;;;5063833;28;20190;-79
2022/12/06 05:21:46;;;;;;;0.50;0.40;;;3.90;99.90;;;;;;5072124;28;20618;-79
2022/12/06 05:24:13;;;;;;;0.50;0.40;;;3.90;99.90;;;;;;5070433;28;20304;-78
2022/12/06 05:26:41;;;;;;;0.50;0.40;;;3.90;99.90;;;;;;5071734;28;20229;-77
2022/12/06 05:29:08;;;;;;;0.50;0.40;;;3.90;99.90;;;;;;5069366;28;20198;-78
2022/12/06 05:31:34;;;;;;;0.50;0.40;;;4.00;99.90;;;;;;5071129;28;20189;-77
2022/12/06 05:34:01;;;;;;;0.50;0.40;;;4.00;99.90;;;;;;5068919;28;20789;-81
2022/12/06 05:36:28;;;;;;;0.50;0.50;;;4.00;99.90;;;;;;5070988;28;20729;-79
2022/12/06 05:38:56;;;;;;;0.50;0.40;;;4.00;99.90;;;;;;5070066;28;20189;-79
2022/12/06 05:41:24;;;;;;;0.50;0.40;;;4.10;99.90;;;;;;5058628;28;20191;-78
2022/12/06 05:43:52;;;;;;;0.50;0.50;;;4.00;99.90;;;;;;5067274;28;20214;-79
2022/12/06 05:46:19;;;;;;;0.50;0.50;;;4.00;99.90;;;;;;5061323;28;20191;-79
2022/12/06 05:48:46;;;;;;;0.50;0.40;;;4.10;99.90;;;;;;5069972;28;20186;-77
2022/12/06 05:51:13;;;;;;;0.50;0.40;;;4.10;99.90;;;;;;5061630;28;20614;-78
2022/12/06 05:53:40;;;;;;;0.50;0.40;;;4.10;99.90;;;;;;5070848;28;20293;-80
2022/12/06 05:56:09;;;;;;;0.50;0.40;;;4.10;99.90;;;;;;5069359;28;20216;-78
2022/12/06 05:58:37;;;;;;;0.50;0.40;;;4.10;99.90;;;;;;5068425;28;20219;-77
2022/12/06 06:01:06;;;;;;;0.50;0.40;;;4.10;99.90;;;;;;5070845;28;20194;-80
2022/12/06 06:03:33;;;;;;;0.50;0.40;;;4.20;99.90;;;;;;5070890;28;20220;-79
2022/12/06 06:06:01;;;;;;;0.50;0.40;;;4.20;99.90;;;;;;5070253;28;20191;-80
2022/12/06 06:08:29;;;;;;;0.50;0.40;;;4.20;99.90;;;;;;5065256;28;20644;-81
2022/12/06 06:10:56;;;;;;;0.50;0.40;;;4.20;99.90;;;;;;5060171;28;20290;-79
2022/12/06 06:13:23;;;;;;;0.50;0.40;;;4.20;99.90;;;;;;5066218;28;20308;-79
2022/12/06 06:15:50;;;;;;;0.50;0.40;;;4.20;99.90;;;;;;5069909;28;20207;-76
2022/12/06 06:18:19;;;;;;;0.50;0.40;;;4.20;99.90;;;;;;5069237;28;20277;-78
2022/12/06 06:20:51;;;;;;;0.50;0.40;;;4.30;99.90;;;;;;5074609;28;20189;-79
2022/12/06 06:23:18;;;;;;;0.57;0.55;;;4.30;99.90;;;;;;5075078;28;20206;-79
2022/12/06 06:25:45;;;;;;;1.92;1.83;;;4.30;99.90;;;;;;5073948;28;20210;-79
2022/12/06 06:28:12;;;;;;;0.50;0.40;;;4.30;99.90;;;;;;5075335;28;20264;-80
2022/12/06 06:30:39;;;;;;;1.95;1.85;;;4.30;99.90;;;;;;5068224;28;20711;-77
2022/12/06 06:33:06;;;;;;;0.77;0.77;;;4.30;99.90;;;;;;5073826;28;20214;-82
2022/12/06 06:35:34;;;;;;;0.50;0.40;;;4.30;99.90;;;;;;5074020;28;20213;-79
2022/12/06 06:38:01;;;;;;;0.50;0.40;;;4.30;99.90;;;;;;5074902;28;20276;-80
2022/12/06 06:40:28;;;;;;;0.50;0.40;;;4.30;99.90;;;;;;5074819;28;20261;-80
2022/12/06 06:42:56;;;;;;;0.50;0.40;;;4.30;99.90;;;;;;5066597;28;20305;-80
2022/12/06 06:45:23;;;;;;;0.50;0.40;;;4.30;99.90;;;;;;5075581;28;20209;-80
2022/12/06 06:47:50;;;;;;;0.50;0.40;;;4.30;99.90;;;;;;5074797;28;20750;-80
2022/12/06 06:50:17;;;;;;;2.83;2.72;;;4.40;99.90;;;;;;5074377;28;20303;-79
2022/12/06 06:52:45;;;;;;;0.68;0.65;;;4.40;99.90;;;;;;5072458;28;20601;-81
2022/12/06 06:55:12;;;;;;;0.50;0.40;;;4.30;99.90;;;;;;5071584;28;20304;-80
2022/12/06 06:57:40;;;;;;;3.08;2.85;;;4.30;99.90;;;;;;5076562;28;20201;-80
2022/12/06 07:00:09;;;;;;;4.10;3.90;;;4.40;99.90;;;;;;5074347;28;20222;-80
2022/12/06 07:02:38;;;;;;;0.52;0.40;;;4.40;99.90;;;;;;5074642;28;20193;-79
2022/12/06 07:05:05;;;;;;;0.50;0.40;;;4.40;99.90;;;;;;5071458;28;20652;-80
2022/12/06 07:07:32;;;;;;;0.50;0.50;;;4.40;99.90;;;;;;5076654;28;20276;-80
2022/12/06 07:10:00;;;;;;;0.50;0.40;;;4.40;99.90;;;;;;5075289;28;20193;-79
2022/12/06 07:12:27;;;;;;;0.50;0.40;;;4.40;99.90;;;;;;5074553;28;20221;-78
2022/12/06 07:14:54;;;;;;;0.50;0.40;;;4.40;99.90;;;;;;5079146;28;20324;-77
2022/12/06 07:17:21;;;;;;;0.50;0.40;;;4.40;99.90;;;;;;5081502;28;20258;-79
2022/12/06 07:19:48;;;;;;;0.50;0.40;;;4.40;99.90;;;;;;5069317;28;21034;-78
2022/12/06 07:22:14;;;;;;;0.50;0.40;;;4.40;99.90;;;;;;5070565;28;20194;-79
2022/12/06 07:24:41;;;;;;;0.50;0.47;;;4.40;99.90;;;;;;5066366;28;20208;-81
2022/12/06 07:27:10;;;;;;;0.50;0.40;;;4.50;99.90;;;;;;5073138;28;20194;-78
2022/12/06 07:29:37;;;;;;;4.30;4.10;;;4.50;99.90;;;;;;5071941;28;20239;-76
2022/12/06 07:32:04;;;;;;;0.50;0.50;;;4.50;99.90;;;;;;5072101;28;20209;-78
2022/12/06 07:34:32;;;;;;;0.50;0.40;;;4.50;99.90;;;;;;5057330;28;20221;-76
2022/12/06 07:36:58;;;;;;;0.50;0.50;;;4.50;99.90;;;;;;5073362;28;20288;-79
2022/12/06 07:39:26;;;;;;;0.50;0.40;;;4.50;99.90;;;;;;5072853;28;20192;-77
2022/12/06 07:47:22;;;;;;;0.75;0.75;;;4.60;99.90;;;;;;5069806;28;20197;-78
2022/12/06 07:49:52;;;;;;;0.50;0.40;;;4.70;99.90;;;;;;5071803;28;20281;-78
2022/12/06 07:52:19;;;;;;;0.50;0.40;;;4.60;99.90;;;;;;5071566;28;20667;-77
2022/12/06 07:54:46;;;;;;;0.50;0.40;;;4.60;99.90;;;;;;5070712;28;20210;-77
2022/12/06 07:57:13;;;;;;;0.50;0.40;;;4.70;99.90;;;;;;5069279;28;20222;-77
2022/12/06 07:59:41;;;;;;;0.50;0.40;;;4.70;99.90;;;;;;5059253;28;20282;-77
2022/12/06 08:02:17;;;;;;;2.08;1.98;;;4.70;99.90;;;;;;5070293;28;20555;-78
2022/12/06 08:04:44;;;;;;;0.50;0.40;;;4.80;99.90;;;;;;5049783;28;20225;-79
2022/12/06 08:07:11;;;;;;;0.50;0.43;;;4.80;99.90;;;;;;5058367;28;20193;-78
2022/12/06 08:09:37;;;;;;;0.50;0.40;;;4.80;99.90;;;;;;5070247;28;20194;-79
2022/12/06 08:12:05;;;;;;;0.50;0.40;;;4.80;99.90;;;;;;5072082;28;20194;-77
2022/12/06 08:14:32;;;;;;;0.50;0.40;;;4.80;99.90;;;;;;5061765;28;20229;-74
2022/12/06 08:17:00;;;;;;;0.50;0.40;;;4.80;99.90;;;;;;5060146;28;20771;-78
2022/12/06 08:19:27;;;;;;;0.50;0.40;;;4.90;99.90;;;;;;5064169;28;20681;-76
2022/12/06 08:21:54;;;;;;;0.50;0.40;;;4.90;99.90;;;;;;5052384;28;20208;-79
2022/12/06 08:24:21;;;;;;;0.60;0.60;;;4.90;99.90;;;;;;5070649;28;20587;-78
2022/12/06 08:26:48;;;;;;;0.70;0.70;;;4.90;99.90;;;;;;5070947;28;20186;-77
2022/12/06 08:29:15;;;;;;;0.50;0.40;;;4.90;99.90;;;;;;5069681;28;20197;-78
2022/12/06 08:31:42;;;;;;;0.50;0.40;;;4.90;99.90;;;;;;5065783;28;20190;-76
2022/12/06 08:34:12;;;;;;;0.50;0.40;;;4.90;99.90;;;;;;5062575;28;21081;-78
2022/12/06 08:36:39;;;;;;;0.50;0.40;;;5.00;99.90;;;;;;5071450;28;20233;-79
2022/12/06 08:39:07;;;;;;;0.50;0.40;;;5.00;99.90;;;;;;5068745;28;20201;-79
2022/12/06 08:44:19;;;;;;;0.50;0.40;;;5.10;99.90;;;;;;4358505;28;10000785;-79
2022/12/06 08:46:47;;;;;;;0.50;0.40;;;5.10;99.90;;;;;;5056675;28;20201;-77
2022/12/06 08:49:16;;;;;;;0.50;0.40;;;5.10;99.90;;;;;;5060097;28;20211;-77
2022/12/06 08:51:44;;;;;;;0.50;0.50;;;5.10;99.90;;;;;;5057993;28;20301;-75
2022/12/06 08:54:14;;;;;;;0.50;0.40;;;5.10;99.90;;;;;;5055839;28;20217;-77
2022/12/06 08:56:41;;;;;;;0.50;0.40;;;5.10;99.90;;;;;;5066697;28;20224;-78
2022/12/06 08:59:08;;;;;;;0.50;0.40;;;5.20;99.90;;;;;;5062817;28;20194;-79
2022/12/06 09:01:35;;;;;;;0.50;0.40;;;5.20;99.90;;;;;;5059745;28;20361;-78
2022/12/06 09:04:03;;;;;;;1.25;1.15;;;5.30;99.90;;;;;;5066161;28;20220;-78
2022/12/06 09:06:31;;;;;;;0.50;0.40;;;5.30;99.90;;;;;;5064600;28;20562;-76
2022/12/06 09:08:58;;;;;;;1.52;1.52;;;5.30;99.90;;;;;;5060732;28;20602;-76
2022/12/06 09:11:25;;;;;;;0.50;0.40;;;5.30;99.90;;;;;;5062467;28;20195;-76
2022/12/06 09:13:52;;;;;;;0.55;0.52;;;5.30;99.90;;;;;;5063114;28;20223;-75
2022/12/06 09:16:21;;;;;;;0.50;0.40;;;5.30;99.90;;;;;;5047857;28;20635;-77
2022/12/06 09:18:48;;;;;;;0.50;0.40;;;5.30;99.90;;;;;;5064023;28;21457;-77
2022/12/06 09:21:17;;;;;;;1.60;1.50;;;5.40;99.90;;;;;;5059534;28;20229;-79
2022/12/06 09:23:45;;;;;;;0.50;0.50;;;5.40;99.90;;;;;;5066648;28;20210;-76
2022/12/06 09:26:13;;;;;;;0.50;0.40;;;5.40;99.90;;;;;;5064287;28;20200;-78
2022/12/06 09:28:43;;;;;;;0.50;0.40;;;5.40;99.90;;;;;;5063280;28;20190;-78
2022/12/06 09:31:10;;;;;;;0.50;0.40;;;5.30;99.90;;;;;;5065853;28;20182;-79
2022/12/06 09:33:37;;;;;;;0.70;0.70;;;5.30;99.90;;;;;;5070668;28;20224;-78
2022/12/06 09:36:08;;;;;;;0.50;0.40;;;5.40;99.90;;;;;;5069174;28;20208;-79
2022/12/06 09:38:38;;;;;;;0.50;0.40;;;5.40;99.90;;;;;;5068866;28;20283;-79
2022/12/06 09:41:21;;;;;;;0.77;0.63;;;5.30;99.90;;;;;;5063682;28;20256;-78
2022/12/06 09:44:05;;;;;;;0.95;0.95;;;5.30;99.90;;;;;;5066578;28;20287;-78
2022/12/06 09:46:48;;;;;;;0.50;0.40;;;5.40;99.90;;;;;;5069391;28;20243;-78
2022/12/06 09:49:28;;;;;;;0.82;0.82;;;5.40;99.90;;;;;;5060978;28;20197;-78
2022/12/06 09:52:21;;;;;;;0.50;0.40;;;5.40;99.90;;;;;;5073053;28;20196;-78
2022/12/06 09:55:01;;;;;;;0.50;0.40;;;5.40;99.90;;;;;;5070005;28;20222;-77
2022/12/06 09:57:39;;;;;;;0.50;0.40;;;5.40;99.90;;;;;;5066169;28;20249;-79
2022/12/06 10:00:08;;;;;;;0.70;0.70;;;5.30;99.90;;;;;;5067317;28;20616;-80
2022/12/06 10:02:58;;;;;;;0.50;0.40;;;5.40;99.90;;;;;;5074038;28;20652;-76
2022/12/06 10:05:36;;;;;;;1.17;0.77;;;5.40;99.90;;;;;;5073722;28;20247;-78
2022/12/06 10:08:18;;;;;;;1.42;1.33;;;5.50;99.90;;;;;;5072059;28;20193;-78
2022/12/06 10:10:56;;;;;;;1.80;1.70;;;5.50;99.90;;;;;;5073537;28;20277;-78
2022/12/06 10:13:37;;;;;;;0.50;0.40;;;5.60;99.90;;;;;;5068885;28;20221;-77
2022/12/06 10:16:16;;;;;;;0.50;0.40;;;5.70;99.90;;;;;;5065176;28;20335;-78
2022/12/06 10:18:56;;;;;;;0.50;0.40;;;5.70;99.90;;;;;;5071136;28;20277;-78
2022/12/06 10:21:34;;;;;;;1.05;1.05;;;5.80;99.90;;;;;;5069443;28;20194;-78
2022/12/06 10:24:16;;;;;;;0.50;0.40;;;5.70;99.90;;;;;;5071199;28;20611;-77
2022/12/06 10:26:49;;;;;;;0.65;0.65;;;5.80;99.90;;;;;;5066389;28;20175;-78
2022/12/06 10:29:21;;;;;;;0.50;0.40;;;5.90;99.90;;;;;;5073924;28;20208;-79
2022/12/06 10:31:57;;;;;;;0.50;0.40;;;5.90;99.90;;;;;;5064754;28;20213;-79
2022/12/06 10:34:39;;;;;;;1.48;0.95;;;5.90;99.90;;;;;;5072162;28;20259;-77
2022/12/06 10:37:19;;;;;;;3.00;2.72;;;6.00;99.90;;;;;;5067051;28;20702;-78
2022/12/06 10:39:50;;;;;;;0.50;0.40;;;6.10;99.90;;;;;;5070266;28;20186;-78
2022/12/06 10:42:26;;;;;;;0.50;0.40;;;6.10;99.90;;;;;;5070380;28;20197;-78
2022/12/06 10:44:59;;;;;;;0.50;0.40;;;6.20;99.90;;;;;;5071237;28;20225;-78
2022/12/06 10:47:30;;;;;;;0.88;0.60;;;6.20;99.90;;;;;;5073856;28;20178;-79
2022/12/06 10:50:03;;;;;;;0.50;0.47;;;6.30;99.90;;;;;;5064414;28;20256;-79
2022/12/06 10:52:38;;;;;;;0.50;0.40;;;6.40;99.90;;;;;;5077294;28;20611;-77
2022/12/06 10:55:16;;;;;;;0.50;0.40;;;6.60;99.90;;;;;;5071976;28;20182;-78
2022/12/06 10:57:48;;;;;;;0.50;0.50;;;6.60;99.90;;;;;;5084619;28;20223;-77
2022/12/06 11:00:20;;;;;;;0.50;0.50;;;6.60;99.90;;;;;;5080527;28;20192;-80
2022/12/06 11:02:55;;;;;;;1.35;1.15;;;6.50;99.90;;;;;;5073725;28;20200;-79
2022/12/06 11:05:27;;;;;;;0.50;0.40;;;6.60;99.90;;;;;;5076331;28;20201;-78
2022/12/06 11:08:01;;;;;;;0.50;0.40;;;6.60;99.90;;;;;;5083355;28;20182;-78
2022/12/06 11:10:33;;;;;;;0.50;0.40;;;6.70;99.90;;;;;;5079328;28;20197;-78
2022/12/06 11:13:13;;;;;;;0.50;0.40;;;6.70;99.90;;;;;;5070218;28;20217;-78
2022/12/06 11:15:48;;;;;;;0.50;0.40;;;6.90;99.90;;;;;;5055582;28;20183;-79
2022/12/06 11:18:18;;;;;;;1.00;1.00;;;6.90;99.90;;;;;;5079795;28;20563;-78
2022/12/06 11:20:49;;;;;;;0.50;0.40;;;7.00;99.90;;;;;;5076198;28;20566;-79
2022/12/06 11:23:23;;;;;;;8.77;2.00;;;6.90;99.90;;;;;;5081398;28;20209;-81
2022/12/06 11:26:06;;;;;;;1.02;0.95;;;6.90;99.90;;;;;;5071344;28;20206;-79
2022/12/06 11:28:39;;;;;;;0.50;0.40;;;7.00;99.90;;;;;;5057120;28;20581;-79
2022/12/06 11:31:17;;;;;;;0.73;0.63;;;7.00;99.90;;;;;;5076673;28;20285;-80
2022/12/06 11:33:45;;;;;;;0.88;0.70;;;7.00;99.90;;;;;;5070583;28;20249;-78
2022/12/06 11:36:12;;;;;;;0.95;0.95;;;7.00;99.90;;;;;;5070022;28;20194;-79
2022/12/06 11:38:42;;;;;;;0.50;0.40;;;6.90;99.90;;;;;;5077912;28;20197;-77
2022/12/06 11:41:13;;;;;;;1.73;1.50;;;6.90;99.90;;;;;;5072767;28;20186;-78
2022/12/06 11:43:40;;;;;;;0.50;0.40;;;6.90;99.90;;;;;;5066410;28;20214;-78
2022/12/06 11:46:13;;;;;;;0.50;0.40;;;6.90;99.90;;;;;;5065298;28;20198;-78
2022/12/06 11:48:40;;;;;;;1.75;1.65;;;7.00;99.90;;;;;;5061795;28;20277;-75
2022/12/06 11:51:15;;;;;;;0.50;0.40;;;7.10;99.90;;;;;;5061540;28;20285;-78
2022/12/06 11:53:51;;;;;;;0.55;0.52;;;7.20;99.90;;;;;;5057674;28;20221;-78
2022/12/06 11:56:22;;;;;;;4.57;1.13;;;7.30;99.90;;;;;;5065521;28;20690;-79
2022/12/06 11:58:59;;;;;;;0.50;0.40;;;7.30;99.90;;;;;;5072341;28;20644;-80
2022/12/06 12:01:40;;;;;;;0.50;0.40;;;7.30;99.90;;;;;;5073336;28;20200;-79
2022/12/06 12:04:30;;;;;;;0.50;0.40;;;7.30;99.90;;;;;;5074399;28;20214;-79
2022/12/06 12:06:59;;;;;;;0.50;0.40;;;7.20;99.90;;;;;;5076546;28;20563;-78
2022/12/06 12:09:30;;;;;;;4.78;1.25;;;7.10;99.90;;;;;;5072157;28;20194;-78
2022/12/06 12:12:02;;;;;;;0.75;0.75;;;7.10;99.90;;;;;;5065172;28;20190;-78
2022/12/06 12:14:36;;;;;;;1.23;1.13;;;6.90;99.90;;;;;;5067526;28;20604;-79
2022/12/06 12:17:12;;;;;;;0.50;0.40;;;6.80;99.90;;;;;;5068030;28;20229;-78
2022/12/06 12:19:43;;;;;;;0.50;0.40;;;6.60;99.90;;;;;;5071759;28;20188;-78
2022/12/06 12:22:20;;;;;;;0.50;0.40;;;6.50;99.90;;;;;;5074732;28;20281;-79
2022/12/06 12:24:49;;;;;;;0.50;0.40;;;6.30;99.90;;;;;;5071927;28;20531;-75
2022/12/06 12:27:33;;;;;;;1.88;0.85;;;6.10;99.90;;;;;;5061529;28;20189;-78
2022/12/06 12:30:27;;;;;;;0.50;0.40;;;5.90;99.90;;;;;;5071865;28;20208;-76
2022/12/06 12:35:55;;;;;;;0.50;0.40;;;5.80;99.90;;;;;;5081879;28;20546;-77
2022/12/06 12:38:28;;;;;;;0.50;0.40;;;5.60;99.90;;;;;;5086555;28;20214;-75
2022/12/06 12:41:00;;;;;;;0.50;0.40;;;5.60;99.90;;;;;;5083525;28;20189;-79
2022/12/06 12:43:30;;;;;;;0.50;0.40;;;5.70;99.90;;;;;;5079747;28;20711;-78
2022/12/06 12:46:15;;;;;;;0.50;0.40;;;6.00;99.90;;;;;;5055645;28;20212;-78
2022/12/06 12:48:43;;;;;;;0.50;0.40;;;6.60;99.90;;;;;;5067448;28;20205;-76
2022/12/06 12:51:23;;;;;;;0.50;0.40;;;6.70;99.90;;;;;;5065710;28;20187;-79
2022/12/06 12:53:55;;;;;;;0.50;0.40;;;6.90;99.90;;;;;;5067376;28;20754;-77
2022/12/06 12:56:22;;;;;;;0.85;0.82;;;7.10;99.90;;;;;;5065207;28;20198;-77
2022/12/06 12:58:52;;;;;;;0.50;0.40;;;7.40;99.90;;;;;;5066585;28;20218;-78
2022/12/06 13:01:30;;;;;;;0.82;0.82;;;7.50;99.90;;;;;;5061727;28;20290;-80
2022/12/06 13:04:03;;;;;;;0.98;0.93;;;7.60;99.90;;;;;;5065234;28;20210;-79
2022/12/06 13:06:40;;;;;;;0.50;0.40;;;7.70;99.90;;;;;;5066416;28;20186;-78
2022/12/06 13:09:14;;;;;;;0.50;0.40;;;7.90;99.90;;;;;;5067699;28;20265;-76
2022/12/06 13:11:47;;;;;;;4.95;4.75;;;7.90;99.90;;;;;;5068814;28;20291;-79
2022/12/06 13:14:19;;;;;;;0.70;0.70;;;8.00;99.90;;;;;;5065994;28;20413;-78
2022/12/06 13:16:48;;;;;;;1.70;1.60;;;8.10;99.90;;;;;;5066072;28;20196;-79
2022/12/06 13:19:18;;;;;;;0.50;0.40;;;8.20;99.90;;;;;;5067607;28;20194;-79
2022/12/06 13:21:47;;;;;;;0.80;0.73;;;8.40;99.90;;;;;;5067712;28;20198;-79
2022/12/06 13:24:22;;;;;;;0.50;0.40;;;8.70;99.90;;;;;;5067449;28;20210;-78
2022/12/06 13:26:52;;;;;;;0.50;0.40;;;8.80;99.90;;;;;;5065959;28;20925;-81
2022/12/06 13:29:28;;;;;;;0.50;0.40;;;8.90;99.90;;;;;;5067773;28;20906;-79
2022/12/06 13:31:57;;;;;;;0.50;0.40;;;9.10;99.90;;;;;;5063930;28;20594;-80
2022/12/06 13:34:31;;;;;;;1.10;0.50;;;9.40;99.90;;;;;;5065706;28;20305;-78
2022/12/06 13:36:59;;;;;;;0.60;0.60;;;9.50;99.90;;;;;;5061358;28;20182;-78
2022/12/06 13:39:36;;;;;;;1.20;1.05;;;9.50;99.90;;;;;;5066154;28;20182;-78
2022/12/06 13:42:19;;;;;;;0.50;0.40;;;9.30;99.90;;;;;;5057840;28;20651;-79
2022/12/06 13:44:55;;;;;;;0.50;0.40;;;9.30;99.90;;;;;;5060929;28;20868;-79